createdAt,value
2019-03-05T00:01:37.379Z,98038.88
2019-03-05T00:04:06.699Z,98048.67
2019-03-05T00:06:36.017Z,98049.14
2019-03-05T00:09:10.492Z,98048.67
2019-03-05T00:11:39.834Z,98054.61
2019-03-05T00:14:09.090Z,98050.51
2019-03-05T00:16:38.652Z,98053.73
2019-03-05T00:19:08.003Z,98056.70
2019-03-05T00:21:37.323Z,98070.59
2019-03-05T00:24:44.606Z,98064.33
2019-03-05T00:27:14.011Z,98066.09
2019-03-05T00:30:20.052Z,98067.47
2019-03-05T00:32:52.102Z,98076.79
2019-03-05T00:35:30.557Z,98079.13
2019-03-05T00:38:45.144Z,98083.62
2019-03-05T00:41:24.446Z,98090.78
2019-03-05T00:44:33.630Z,98092.94
2019-03-05T00:47:53.034Z,98093.57
2019-03-05T00:50:47.050Z,98099.60
2019-03-05T00:53:26.175Z,98100.97
2019-03-05T00:56:12.817Z,98100.91
2019-03-05T00:59:01.786Z,98105.80
2019-03-05T01:02:12.385Z,98104.10
2019-03-05T01:05:30.884Z,98106.90
2019-03-05T01:08:00.427Z,98110.86
2019-03-05T01:10:29.758Z,98113.32
2019-03-05T01:12:59.542Z,98110.36
2019-03-05T01:15:28.818Z,98116.85
2019-03-05T01:17:58.162Z,98121.84
2019-03-05T01:20:27.998Z,98123.37
2019-03-05T01:22:57.267Z,98127.88
2019-03-05T01:25:34.118Z,98118.55
2019-03-05T01:28:03.515Z,98128.17
2019-03-05T01:30:59.760Z,98129.97
2019-03-05T01:33:32.372Z,98130.77
2019-03-05T01:36:06.672Z,98133.34
2019-03-05T01:38:45.626Z,98133.80
2019-03-05T01:41:15.185Z,98131.73
2019-03-05T01:43:44.511Z,98135.97
2019-03-05T01:46:13.799Z,98138.30
2019-03-05T01:48:43.337Z,98141.59
2019-03-05T01:51:12.599Z,98140.22
2019-03-05T01:53:41.922Z,98149.05
2019-03-05T01:56:11.387Z,98147.68
2019-03-05T01:58:40.671Z,98157.23
2019-03-05T02:01:10.002Z,98159.73
2019-03-05T02:03:39.495Z,98170.81
2019-03-05T02:06:08.735Z,98163.74
2019-03-05T02:08:38.049Z,98170.63
2019-03-05T02:11:07.564Z,98173.92
2019-03-05T02:13:36.876Z,98172.23
2019-03-05T02:16:06.166Z,98182.53
2019-03-05T02:18:35.771Z,98180.66
2019-03-05T02:21:05.070Z,98190.31
2019-03-05T02:23:47.467Z,98194.97
2019-03-05T02:27:12.579Z,98199.63
2019-03-05T02:30:06.546Z,98201.52
2019-03-05T02:33:31.639Z,98209.89
2019-03-05T02:36:15.897Z,98215.74
2019-03-05T02:39:30.882Z,98222.33
2019-03-05T02:42:28.436Z,98229.01
2019-03-05T02:45:31.544Z,98233.75
2019-03-05T02:48:24.235Z,98241.30
2019-03-05T02:51:37.160Z,98248.45
2019-03-05T02:54:34.543Z,98254.53
2019-03-05T02:57:08.769Z,98243.99
2019-03-05T02:59:38.739Z,98265.53
2019-03-05T03:02:27.055Z,98266.06
2019-03-05T03:05:27.658Z,98266.58
2019-03-05T03:07:56.981Z,98272.84
2019-03-05T03:10:26.735Z,98279.67
2019-03-05T03:12:56.410Z,98291.47
2019-03-05T03:15:25.681Z,98283.34
2019-03-05T03:17:54.995Z,98294.08
2019-03-05T03:20:24.821Z,98293.97
2019-03-05T03:22:54.139Z,98299.44
2019-03-05T03:25:24.222Z,98299.34
2019-03-05T03:27:53.883Z,98305.38
2019-03-05T03:30:24.631Z,98307.86
2019-03-05T03:32:53.982Z,98321.13
2019-03-05T03:35:23.368Z,98325.61
2019-03-05T03:37:52.606Z,98331.06
2019-03-05T03:40:25.488Z,98328.09
2019-03-05T03:42:55.345Z,98333.17
2019-03-05T03:45:27.836Z,98346.08
2019-03-05T03:47:57.181Z,98353.38
2019-03-05T03:50:26.471Z,98359.67
2019-03-05T03:52:55.820Z,98364.81
2019-03-05T03:55:25.145Z,98368.23
2019-03-05T03:57:54.443Z,98369.13
2019-03-05T04:00:25.019Z,98376.52
2019-03-05T04:02:55.006Z,98384.45
2019-03-05T04:05:24.323Z,98386.50
2019-03-05T04:07:53.639Z,98394.88
2019-03-05T04:10:23.051Z,98400.61
2019-03-05T04:12:52.273Z,98402.59
2019-03-05T04:15:22.172Z,98402.88
2019-03-05T04:17:51.598Z,98410.90
2019-03-05T04:20:35.309Z,98411.27
2019-03-05T04:23:04.632Z,98414.00
2019-03-05T04:25:33.913Z,98417.02
2019-03-05T04:28:03.301Z,98429.61
2019-03-05T04:30:32.834Z,98428.85
2019-03-05T04:33:02.130Z,98431.90
2019-03-05T04:35:31.503Z,98438.28
2019-03-05T04:38:00.778Z,98439.01
2019-03-05T04:40:30.058Z,98437.36
2019-03-05T04:42:59.356Z,98448.48
2019-03-05T04:45:39.447Z,98453.98
2019-03-05T04:48:09.118Z,98457.62
2019-03-05T04:50:43.068Z,98463.20
2019-03-05T04:53:12.501Z,98468.00
2019-03-05T04:55:41.775Z,98476.22
2019-03-05T04:58:11.110Z,98473.16
2019-03-05T05:00:40.502Z,98489.52
2019-03-05T05:03:09.791Z,98485.74
2019-03-05T05:05:39.193Z,98497.10
2019-03-05T05:08:08.492Z,98499.58
2019-03-05T05:10:37.774Z,98502.95
2019-03-05T05:13:07.111Z,98511.89
2019-03-05T05:15:36.431Z,98522.80
2019-03-05T05:18:05.900Z,98523.84
2019-03-05T05:20:35.180Z,98529.66
2019-03-05T05:23:04.565Z,98538.49
2019-03-05T05:25:33.845Z,98548.59
2019-03-05T05:28:03.124Z,98554.67
2019-03-05T05:30:39.406Z,98553.87
2019-03-05T05:33:08.859Z,98562.11
2019-03-05T05:35:38.174Z,98572.80
2019-03-05T05:38:07.556Z,98576.09
2019-03-05T05:40:38.444Z,98588.60
2019-03-05T05:43:15.624Z,98597.06
2019-03-05T05:45:49.357Z,98595.52
2019-03-05T05:48:18.921Z,98603.50
2019-03-05T05:50:48.263Z,98610.41
2019-03-05T05:53:17.513Z,98619.26
2019-03-05T05:55:46.917Z,98618.95
2019-03-05T05:58:16.242Z,98627.69
2019-03-05T06:00:47.698Z,98633.11
2019-03-05T06:03:17.040Z,98634.19
2019-03-05T06:05:46.288Z,98639.47
2019-03-05T06:08:15.585Z,98641.20
2019-03-05T06:10:44.999Z,98648.06
2019-03-05T06:13:14.341Z,98651.28
2019-03-05T06:15:43.614Z,98652.73
2019-03-05T06:18:13.077Z,98662.83
2019-03-05T06:20:42.834Z,98666.96
2019-03-05T06:23:12.139Z,98673.22
2019-03-05T06:25:41.667Z,98681.69
2019-03-05T06:28:11.008Z,98684.72
2019-03-05T06:30:40.356Z,98683.81
2019-03-05T06:33:09.620Z,98688.70
2019-03-05T06:35:38.983Z,98699.32
2019-03-05T06:38:08.315Z,98702.48
2019-03-05T06:40:37.688Z,98705.32
2019-03-05T06:43:06.985Z,98709.20
2019-03-05T06:45:36.282Z,98713.93
2019-03-05T06:48:05.830Z,98712.89
2019-03-05T06:50:35.134Z,98719.52
2019-03-05T06:53:04.435Z,98726.62
2019-03-05T06:55:33.785Z,98734.25
2019-03-05T06:58:03.058Z,98738.59
2019-03-05T07:00:33.682Z,98740.33
2019-03-05T07:03:02.995Z,98747.07
2019-03-05T07:06:07.587Z,98758.03
2019-03-05T07:08:38.899Z,98761.03
2019-03-05T07:11:53.401Z,98768.47
2019-03-05T07:14:31.606Z,98774.47
2019-03-05T07:17:31.727Z,98777.75
2019-03-05T07:20:32.204Z,98783.02
2019-03-05T07:23:19.314Z,98788.74
2019-03-05T07:25:48.815Z,98803.06
2019-03-05T07:28:18.108Z,98807.25
2019-03-05T07:30:47.380Z,98813.79
2019-03-05T07:33:17.015Z,98806.66
2019-03-05T07:35:46.485Z,98815.88
2019-03-05T07:38:15.837Z,98830.62
2019-03-05T07:40:45.310Z,98829.19
2019-03-05T07:43:14.578Z,98828.54
2019-03-05T07:45:43.889Z,98840.56
2019-03-05T07:48:13.314Z,98844.73
2019-03-05T07:50:42.710Z,98850.43
2019-03-05T07:53:12.078Z,98860.77
2019-03-05T07:55:41.504Z,98861.61
2019-03-05T07:58:10.905Z,98861.31
2019-03-05T08:00:40.259Z,98877.34
2019-03-05T08:03:09.763Z,98889.27
2019-03-05T08:05:39.132Z,98890.39
2019-03-05T08:08:44.028Z,98891.45
2019-03-05T08:11:13.784Z,98896.31
2019-03-05T08:14:34.551Z,98902.84
2019-03-05T08:17:03.920Z,98911.80
2019-03-05T08:19:33.342Z,98919.36
2019-03-05T08:22:03.283Z,98925.37
2019-03-05T08:24:32.641Z,98930.50
2019-03-05T08:27:02.004Z,98938.58
2019-03-05T08:29:31.659Z,98947.23
2019-03-05T08:32:01.083Z,98954.80
2019-03-05T08:34:30.451Z,98957.45
2019-03-05T08:37:00.243Z,98965.85
2019-03-05T08:39:29.603Z,98964.74
2019-03-05T08:41:58.940Z,98971.56
2019-03-05T08:44:28.482Z,98978.61
2019-03-05T08:46:57.827Z,98980.28
2019-03-05T08:49:27.171Z,98988.66
2019-03-05T08:51:56.712Z,98994.91
2019-03-05T08:54:26.046Z,99004.86
2019-03-05T08:56:55.385Z,99011.03
2019-03-05T08:59:25.069Z,99019.27
2019-03-05T09:01:54.415Z,99018.39
2019-03-05T09:04:23.812Z,99028.53
2019-03-05T09:06:53.452Z,99035.02
2019-03-05T09:09:22.803Z,99039.64
2019-03-05T09:11:52.160Z,99038.28
2019-03-05T09:14:21.784Z,99050.48
2019-03-05T09:16:51.139Z,99052.89
2019-03-05T09:19:20.538Z,99067.77
2019-03-05T09:21:50.014Z,99062.86
2019-03-05T09:24:19.356Z,99067.34
2019-03-05T09:26:51.603Z,99075.53
2019-03-05T09:29:20.026Z,99081.30
2019-03-05T09:31:49.361Z,99081.84
2019-03-05T09:34:18.713Z,99084.25
2019-03-05T09:36:51.197Z,99090.77
2019-03-05T09:39:19.341Z,99102.89
2019-03-05T09:41:48.686Z,99104.16
2019-03-05T09:44:18.246Z,99111.41
2019-03-05T09:46:47.592Z,99119.16
2019-03-05T09:49:16.932Z,99131.93
2019-03-05T09:51:46.408Z,99131.23
2019-03-05T09:54:15.665Z,99139.09
2019-03-05T09:56:44.999Z,99139.91
2019-03-05T09:59:14.475Z,99150.02
2019-03-05T10:01:43.784Z,99156.34
2019-03-05T10:04:13.042Z,99159.83
2019-03-05T10:06:42.709Z,99165.52
2019-03-05T10:09:12.076Z,99178.09
2019-03-05T10:11:41.347Z,99172.91
2019-03-05T10:14:10.894Z,99179.96
2019-03-05T10:16:40.204Z,99189.77
2019-03-05T10:19:09.513Z,99185.75
2019-03-05T10:21:46.268Z,99191.80
2019-03-05T10:24:11.082Z,99203.88
2019-03-05T10:26:40.540Z,99206.91
2019-03-05T10:29:09.884Z,99221.95
2019-03-05T10:31:39.214Z,99220.88
2019-03-05T10:34:08.661Z,99235.33
2019-03-05T10:36:38.027Z,99245.47
2019-03-05T10:39:30.516Z,99255.04
2019-03-05T10:41:56.570Z,99251.25
2019-03-05T10:44:26.020Z,99268.03
2019-03-05T10:46:56.231Z,99271.87
2019-03-05T10:49:25.834Z,99276.69
2019-03-05T10:51:55.320Z,99284.39
2019-03-05T10:54:24.615Z,99287.38
2019-03-05T10:56:54.032Z,99292.05
2019-03-05T10:59:23.579Z,99299.72
2019-03-05T11:01:52.900Z,99306.05
2019-03-05T11:04:22.511Z,99320.71
2019-03-05T11:06:52.144Z,99312.80
2019-03-05T11:09:21.876Z,99319.02
2019-03-05T11:11:51.180Z,99329.92
2019-03-05T11:14:20.700Z,99333.53
2019-03-05T11:16:50.145Z,99339.73
2019-03-05T11:19:19.760Z,99341.09
2019-03-05T11:21:49.168Z,99352.48
2019-03-05T11:24:18.632Z,99356.61
2019-03-05T11:26:47.903Z,99362.93
2019-03-05T11:29:17.377Z,99371.72
2019-03-05T11:31:46.690Z,99378.79
2019-03-05T11:34:16.018Z,99371.42
2019-03-05T11:36:45.538Z,99382.61
2019-03-05T11:39:15.025Z,99397.03
2019-03-05T11:41:44.360Z,99404.11
2019-03-05T11:44:13.809Z,99406.57
2019-03-05T11:46:43.214Z,99415.30
2019-03-05T11:49:12.508Z,99425.92
2019-03-05T11:51:41.959Z,99425.89
2019-03-05T11:54:11.268Z,99434.86
2019-03-05T11:56:40.669Z,99437.03
2019-03-05T11:59:10.132Z,99447.44
2019-03-05T12:01:42.760Z,99452.59
2019-03-05T12:04:12.246Z,99463.20
2019-03-05T12:06:41.522Z,99466.72
2019-03-05T12:09:10.864Z,99473.25
2019-03-05T12:11:40.280Z,99480.63
2019-03-05T12:14:09.549Z,99487.68
2019-03-05T12:16:41.531Z,99487.94
2019-03-05T12:19:10.189Z,99500.23
2019-03-05T12:21:39.531Z,99516.88
2019-03-05T12:24:08.793Z,99524.80
2019-03-05T12:26:38.292Z,99529.38
2019-03-05T12:29:07.578Z,99532.11
2019-03-05T12:31:36.847Z,99546.25
2019-03-05T12:34:06.339Z,99540.77
2019-03-05T12:36:35.641Z,99545.16
2019-03-05T12:39:05.589Z,99557.14
2019-03-05T12:41:34.939Z,99563.42
2019-03-05T12:44:05.374Z,99575.17
2019-03-05T12:46:34.802Z,99576.24
2019-03-05T12:49:04.227Z,99580.37
2019-03-05T12:51:33.541Z,99586.92
2019-03-05T12:54:02.787Z,99595.39
2019-03-05T12:56:32.245Z,99603.85
2019-03-05T12:59:01.576Z,99612.30
2019-03-05T13:01:30.863Z,99622.69
2019-03-05T13:04:00.327Z,99633.61
2019-03-05T13:06:29.652Z,99645.63
2019-03-05T13:08:58.991Z,99649.95
2019-03-05T13:11:28.513Z,99661.34
2019-03-05T13:14:06.044Z,99667.66
2019-03-05T13:16:29.028Z,99677.53
2019-03-05T13:18:58.514Z,99680.63
2019-03-05T13:21:28.502Z,99693.32
2019-03-05T13:23:57.898Z,99701.06
2019-03-05T13:26:27.247Z,99714.14
2019-03-05T13:28:56.521Z,99716.45
2019-03-05T13:31:25.787Z,99718.25
2019-03-05T13:33:55.093Z,99725.37
2019-03-05T13:36:24.407Z,99728.94
2019-03-05T13:38:53.828Z,99730.66
2019-03-05T13:41:23.096Z,99734.91
2019-03-05T13:43:55.486Z,99745.01
2019-03-05T13:46:25.869Z,99742.92
2019-03-05T13:49:40.255Z,99757.82
2019-03-05T13:52:36.073Z,99763.61
2019-03-05T13:55:17.781Z,99767.55
2019-03-05T13:58:00.859Z,99772.03
2019-03-05T14:00:30.200Z,99782.59
2019-03-05T14:03:01.166Z,99789.88
2019-03-05T14:06:14.649Z,99793.90
2019-03-05T14:09:12.314Z,99800.78
2019-03-05T14:11:41.988Z,99811.56
2019-03-05T14:14:15.730Z,99809.75
2019-03-05T14:16:45.608Z,99817.54
2019-03-05T14:19:14.980Z,99823.88
2019-03-05T14:21:44.372Z,99830.40
2019-03-05T14:24:13.969Z,99843.03
2019-03-05T14:26:43.281Z,99836.80
2019-03-05T14:29:12.569Z,99849.25
2019-03-05T14:31:42.126Z,99860.66
2019-03-05T14:34:11.453Z,99864.83
2019-03-05T14:36:40.780Z,99873.11
2019-03-05T14:39:27.931Z,99870.48
2019-03-05T14:41:57.316Z,99872.92
2019-03-05T14:44:26.721Z,99876.73
2019-03-05T14:46:57.706Z,99887.77
2019-03-05T14:49:27.313Z,99885.38
2019-03-05T14:51:56.563Z,99889.51
2019-03-05T14:54:25.912Z,99888.05
2019-03-05T14:56:55.211Z,99891.09
2019-03-05T14:59:24.561Z,99900.77
2019-03-05T15:01:53.919Z,99910.82
2019-03-05T15:04:23.216Z,99924.06
2019-03-05T15:06:52.607Z,99929.73
2019-03-05T15:09:22.148Z,99941.19
2019-03-05T15:11:51.447Z,99946.62
2019-03-05T15:14:20.749Z,99944.94
2019-03-05T15:16:50.127Z,99949.89
2019-03-05T15:19:21.665Z,99954.23
2019-03-05T15:21:50.555Z,99964.50
2019-03-05T15:24:20.089Z,99966.08
2019-03-05T15:26:49.338Z,99961.30
2019-03-05T15:29:18.635Z,99964.11
2019-03-05T15:31:48.145Z,99971.82
2019-03-05T15:34:17.418Z,99981.66
2019-03-05T15:36:46.750Z,99979.97
2019-03-05T15:39:16.153Z,99982.70
2019-03-05T15:41:46.284Z,99990.52
2019-03-05T15:44:15.769Z,99987.91
2019-03-05T15:46:45.250Z,99993.19
2019-03-05T15:49:14.566Z,99994.55
2019-03-05T15:51:43.846Z,100001.30
2019-03-05T15:54:13.268Z,100005.70
2019-03-05T15:56:42.623Z,100001.94
2019-03-05T15:59:12.064Z,100010.36
2019-03-05T16:01:41.437Z,100013.08
2019-03-05T16:04:10.781Z,100024.94
2019-03-05T16:06:40.114Z,100028.73
2019-03-05T16:09:19.029Z,100037.67
2019-03-05T16:11:48.327Z,100036.11
2019-03-05T16:14:17.584Z,100045.28
2019-03-05T16:16:47.004Z,100051.16
2019-03-05T16:19:17.735Z,100059.03
2019-03-05T16:21:47.233Z,100070.66
2019-03-05T16:24:16.569Z,100071.73
2019-03-05T16:26:45.865Z,100073.64
2019-03-05T16:29:16.206Z,100083.09
2019-03-05T16:32:01.564Z,100085.50
2019-03-05T16:34:45.885Z,100090.39
2019-03-05T16:37:22.333Z,100100.44
2019-03-05T16:40:08.945Z,100113.14
2019-03-05T16:42:53.185Z,100114.73
2019-03-05T16:45:47.408Z,100123.59
2019-03-05T16:48:29.802Z,100135.27
2019-03-05T16:51:18.082Z,100139.48
2019-03-05T16:53:58.166Z,100152.98
2019-03-05T16:56:35.484Z,100156.26
2019-03-05T16:59:35.665Z,100162.14
2019-03-05T17:02:18.382Z,100162.39
2019-03-05T17:05:22.388Z,100172.12
2019-03-05T17:08:03.059Z,100176.00
2019-03-05T17:10:57.501Z,100183.32
2019-03-05T17:13:26.802Z,100194.66
2019-03-05T17:15:56.096Z,100201.45
2019-03-05T17:18:25.770Z,100212.30
2019-03-05T17:20:55.265Z,100214.48
2019-03-05T17:23:24.518Z,100221.99
2019-03-05T17:25:53.940Z,100224.80
2019-03-05T17:28:23.262Z,100231.49
2019-03-05T17:30:52.538Z,100240.04
2019-03-05T17:33:22.104Z,100237.51
2019-03-05T17:35:51.397Z,100245.90
2019-03-05T17:38:20.693Z,100249.55
2019-03-05T17:40:49.990Z,100249.23
2019-03-05T17:43:19.309Z,100250.05
2019-03-05T17:45:48.621Z,100261.44
2019-03-05T17:48:17.953Z,100266.98
2019-03-05T17:50:47.240Z,100270.22
2019-03-05T17:53:16.519Z,100273.16
2019-03-05T17:55:46.023Z,100285.08
2019-03-05T17:58:15.331Z,100294.57
2019-03-05T18:00:45.452Z,100301.06
2019-03-05T18:03:14.909Z,100305.42
2019-03-05T18:05:44.178Z,100309.78
2019-03-05T18:08:13.517Z,100309.49
2019-03-05T18:10:42.992Z,100310.84
2019-03-05T18:13:12.277Z,100324.13
2019-03-05T18:15:41.586Z,100327.66
2019-03-05T18:18:11.011Z,100339.63
2019-03-05T18:20:40.303Z,100346.36
2019-03-05T18:23:09.631Z,100349.00
2019-03-05T18:25:39.043Z,100357.39
2019-03-05T18:28:08.307Z,100358.57
2019-03-05T18:30:37.590Z,100357.58
2019-03-05T18:33:06.992Z,100357.79
2019-03-05T18:35:36.336Z,100355.33
2019-03-05T18:38:05.759Z,100361.57
2019-03-05T18:40:35.244Z,100373.34
2019-03-05T18:43:04.820Z,100370.22
2019-03-05T18:45:34.244Z,100380.17
2019-03-05T18:48:03.798Z,100388.92
2019-03-05T18:50:33.096Z,100386.42
2019-03-05T18:53:02.389Z,100397.59
2019-03-05T18:55:32.112Z,100402.53
2019-03-05T18:58:01.443Z,100402.89
2019-03-05T19:00:30.782Z,100415.17
2019-03-05T19:03:00.352Z,100424.55
2019-03-05T19:05:29.674Z,100429.12
2019-03-05T19:07:59.016Z,100426.58
2019-03-05T19:10:28.595Z,100431.42
2019-03-05T19:12:57.913Z,100445.88
2019-03-05T19:15:27.329Z,100450.70
2019-03-05T19:17:56.838Z,100459.66
2019-03-05T19:20:26.285Z,100463.52
2019-03-05T19:22:55.693Z,100472.27
2019-03-05T19:25:26.762Z,100473.33
2019-03-05T19:27:56.124Z,100470.54
2019-03-05T19:30:31.243Z,100476.73
2019-03-05T19:33:00.536Z,100486.57
2019-03-05T19:35:29.932Z,100491.78
2019-03-05T19:37:59.442Z,100507.02
2019-03-05T19:40:30.897Z,100503.41
2019-03-05T19:43:00.260Z,100509.27
2019-03-05T19:45:29.583Z,100507.02
2019-03-05T19:47:58.931Z,100516.52
2019-03-05T19:50:28.306Z,100516.06
2019-03-05T19:52:57.801Z,100522.07
2019-03-05T19:55:27.105Z,100531.19
2019-03-05T19:58:08.486Z,100529.63
2019-03-05T20:00:42.327Z,100534.14
2019-03-05T20:03:11.747Z,100531.58
2019-03-05T20:05:41.145Z,100541.36
2019-03-05T20:08:10.449Z,100550.86
2019-03-05T20:10:40.011Z,100555.83
2019-03-05T20:13:09.367Z,100566.59
2019-03-05T20:15:38.774Z,100564.50
2019-03-05T20:18:08.133Z,100582.03
2019-03-05T20:20:37.465Z,100576.84
2019-03-05T20:23:06.921Z,100573.84
2019-03-05T20:25:36.560Z,100587.25
2019-03-05T20:28:05.873Z,100586.85
2019-03-05T20:30:35.369Z,100589.56
2019-03-05T20:33:04.954Z,100581.72
2019-03-05T20:35:34.290Z,100590.18
2019-03-05T20:38:05.191Z,100593.23
2019-03-05T20:40:34.545Z,100599.52
2019-03-05T20:43:03.950Z,100617.36
2019-03-05T20:45:33.312Z,100622.05
2019-03-05T20:48:02.745Z,100625.05
2019-03-05T20:50:32.314Z,100632.07
2019-03-05T20:53:01.727Z,100629.41
2019-03-05T20:55:31.245Z,100626.78
2019-03-05T20:58:00.625Z,100638.70
2019-03-05T21:00:31.427Z,100646.84
2019-03-05T21:03:02.699Z,100652.31
2019-03-05T21:05:34.116Z,100657.16
2019-03-05T21:08:03.484Z,100652.77
2019-03-05T21:10:32.831Z,100662.14
2019-03-05T21:13:02.857Z,100672.75
2019-03-05T21:15:32.677Z,100672.52
2019-03-05T21:18:02.438Z,100671.48
2019-03-05T21:20:31.778Z,100670.04
2019-03-05T21:23:01.039Z,100677.20
2019-03-05T21:25:30.713Z,100676.83
2019-03-05T21:28:00.104Z,100684.87
2019-03-05T21:30:29.503Z,100690.92
2019-03-05T21:32:58.766Z,100689.39
2019-03-05T21:35:28.064Z,100705.91
2019-03-05T21:37:57.874Z,100711.63
2019-03-05T21:40:27.405Z,100715.02
2019-03-05T21:42:56.660Z,100718.55
2019-03-05T21:45:29.277Z,100718.17
2019-03-05T21:47:58.625Z,100725.42
2019-03-05T21:50:27.908Z,100730.77
2019-03-05T21:52:57.392Z,100734.39
2019-03-05T21:55:26.713Z,100737.69
2019-03-05T21:57:56.065Z,100750.22
2019-03-05T22:00:27.573Z,100757.06
2019-03-05T22:02:57.400Z,100755.32
2019-03-05T22:05:26.702Z,100762.19
2019-03-05T22:07:56.177Z,100770.86
2019-03-05T22:10:25.806Z,100770.77
2019-03-05T22:12:55.143Z,100771.92
2019-03-05T22:15:24.734Z,100778.38
2019-03-05T22:17:54.041Z,100786.31
2019-03-05T22:20:23.760Z,100784.27
2019-03-05T22:22:53.133Z,100803.03
2019-03-05T22:25:22.470Z,100802.78
2019-03-05T22:27:51.786Z,100806.55
2019-03-05T22:30:23.309Z,100807.28
2019-03-05T22:32:52.648Z,100803.45
2019-03-05T22:35:22.229Z,100800.73
2019-03-05T22:37:51.583Z,100806.00
2019-03-05T22:40:20.974Z,100818.11
2019-03-05T22:42:50.382Z,100821.38
2019-03-05T22:45:21.315Z,100824.18
2019-03-05T22:47:50.759Z,100827.19
2019-03-05T22:50:20.069Z,100835.09
2019-03-05T22:52:49.593Z,100835.28
2019-03-05T22:55:18.988Z,100838.20
2019-03-05T22:57:48.347Z,100831.66
2019-03-05T23:00:31.977Z,100842.36
2019-03-05T23:03:01.690Z,100843.09
2019-03-05T23:05:31.759Z,100851.42
2019-03-05T23:08:02.255Z,100855.69
2019-03-05T23:10:31.793Z,100851.56
2019-03-05T23:13:01.101Z,100853.37
2019-03-05T23:15:30.469Z,100869.74
2019-03-05T23:17:59.866Z,100875.03
2019-03-05T23:20:29.393Z,100876.98
2019-03-05T23:22:58.934Z,100874.80
2019-03-05T23:25:28.688Z,100874.73
2019-03-05T23:27:58.019Z,100880.91
2019-03-05T23:30:27.766Z,100880.22
2019-03-05T23:32:57.226Z,100892.53
2019-03-05T23:35:26.488Z,100886.57
2019-03-05T23:37:56.189Z,100886.14
2019-03-05T23:40:25.488Z,100886.96
2019-03-05T23:42:54.874Z,100893.45
2019-03-05T23:45:24.412Z,100894.71
2019-03-05T23:47:53.785Z,100892.92
2019-03-05T23:50:23.067Z,100885.74
2019-03-05T23:52:52.542Z,100889.67
2019-03-05T23:55:21.839Z,100894.32
2019-03-05T23:57:51.093Z,100895.38
